createdAt,value
2019-01-27T00:00:58.794Z,6.27
2019-01-27T00:03:46.878Z,6.53
2019-01-27T00:06:35.122Z,6.30
2019-01-27T00:09:22.340Z,6.09
2019-01-27T00:12:09.626Z,6.13
2019-01-27T00:14:57.088Z,6.34
2019-01-27T00:17:43.922Z,6.17
2019-01-27T00:20:31.334Z,5.78
2019-01-27T00:23:18.949Z,5.91
2019-01-27T00:26:06.678Z,5.96
2019-01-27T00:28:54.107Z,6.04
2019-01-27T00:31:41.379Z,6.64
2019-01-27T00:34:28.486Z,6.93
2019-01-27T00:37:15.360Z,6.97
2019-01-27T00:40:02.570Z,6.89
2019-01-27T00:42:50.198Z,6.93
2019-01-27T00:45:37.626Z,6.46
2019-01-27T00:48:25.074Z,6.54
2019-01-27T00:51:13.085Z,6.42
2019-01-27T00:54:00.816Z,6.20
2019-01-27T00:56:48.648Z,6.51
2019-01-27T00:59:36.278Z,6.07
2019-01-27T01:02:23.885Z,6.64
2019-01-27T01:05:11.536Z,6.86
2019-01-27T01:07:59.060Z,7.02
2019-01-27T01:10:46.665Z,6.73
2019-01-27T01:13:33.781Z,6.92
2019-01-27T01:16:21.645Z,6.49
2019-01-27T01:19:09.100Z,6.27
2019-01-27T01:21:57.004Z,6.41
2019-01-27T01:24:44.838Z,6.05
2019-01-27T01:27:32.342Z,5.70
2019-01-27T01:30:28.607Z,5.50
2019-01-27T01:33:15.921Z,5.87
2019-01-27T01:36:03.966Z,5.72
2019-01-27T01:38:51.846Z,5.55
2019-01-27T01:41:39.256Z,5.79
2019-01-27T01:44:26.434Z,5.84
2019-01-27T01:47:13.754Z,6.19
2019-01-27T01:50:01.690Z,6.36
2019-01-27T01:52:49.099Z,6.41
2019-01-27T01:55:36.043Z,6.52
2019-01-27T01:58:23.243Z,6.29
2019-01-27T02:01:10.563Z,6.46
2019-01-27T02:03:58.192Z,6.49
2019-01-27T02:06:45.617Z,6.40
2019-01-27T02:09:33.714Z,6.19
2019-01-27T02:12:21.488Z,6.45
2019-01-27T02:15:20.904Z,6.57
2019-01-27T02:18:08.318Z,6.47
2019-01-27T02:20:55.744Z,6.45
2019-01-27T02:23:43.477Z,6.74
2019-01-27T02:26:30.461Z,6.67
2019-01-27T02:29:17.587Z,6.49
2019-01-27T02:32:04.915Z,6.45
2019-01-27T02:34:52.354Z,6.63
2019-01-27T02:37:39.652Z,6.15
2019-01-27T02:40:27.402Z,6.05
2019-01-27T02:43:15.236Z,6.19
2019-01-27T02:46:03.275Z,5.72
2019-01-27T02:48:50.706Z,5.65
2019-01-27T02:51:37.916Z,5.51
2019-01-27T02:54:25.254Z,6.03
2019-01-27T02:57:12.973Z,6.15
2019-01-27T03:00:00.599Z,6.53
2019-01-27T03:02:48.438Z,6.78
2019-01-27T03:05:46.713Z,6.05
2019-01-27T03:08:34.955Z,6.16
2019-01-27T03:11:22.160Z,6.10
2019-01-27T03:14:10.111Z,6.06
2019-01-27T03:16:57.843Z,5.96
2019-01-27T03:19:44.667Z,6.19
2019-01-27T03:22:32.186Z,6.34
2019-01-27T03:25:20.035Z,6.69
2019-01-27T03:28:07.554Z,6.54
2019-01-27T03:30:55.080Z,6.35
2019-01-27T03:33:42.692Z,6.57
2019-01-27T03:36:30.013Z,6.51
2019-01-27T03:39:17.232Z,6.65
2019-01-27T03:42:06.094Z,5.15
2019-01-27T03:44:53.336Z,6.25
2019-01-27T03:47:40.837Z,5.92
2019-01-27T03:50:28.300Z,6.18
2019-01-27T03:53:15.587Z,6.51
2019-01-27T03:56:03.530Z,6.09
2019-01-27T03:58:50.738Z,6.29
2019-01-27T04:01:38.374Z,6.44
2019-01-27T04:04:25.690Z,6.34
2019-01-27T04:07:14.032Z,5.83
2019-01-27T04:10:01.871Z,6.07
2019-01-27T04:12:49.294Z,6.16
2019-01-27T04:15:36.821Z,6.54
2019-01-27T04:18:24.463Z,6.33
2019-01-27T04:21:12.197Z,6.47
2019-01-27T04:24:00.028Z,6.28
2019-01-27T04:26:47.645Z,6.32
2019-01-27T04:29:35.067Z,6.83
2019-01-27T04:32:22.259Z,6.47
2019-01-27T04:35:11.664Z,6.27
2019-01-27T04:37:58.871Z,6.23
2019-01-27T04:40:46.506Z,6.47
2019-01-27T04:43:34.031Z,6.60
2019-01-27T04:46:21.758Z,6.47
2019-01-27T04:49:09.494Z,6.41
2019-01-27T04:51:56.810Z,6.58
2019-01-27T04:54:44.340Z,6.67
2019-01-27T04:57:32.068Z,6.48
2019-01-27T05:00:21.657Z,6.90
2019-01-27T05:03:10.352Z,7.01
2019-01-27T05:05:57.667Z,6.64
2019-01-27T05:08:45.155Z,6.82
2019-01-27T05:11:32.672Z,6.77
2019-01-27T05:14:19.480Z,6.92
2019-01-27T05:17:07.417Z,6.74
2019-01-27T05:19:54.739Z,6.80
2019-01-27T05:22:42.471Z,6.69
2019-01-27T05:25:29.916Z,6.68
2019-01-27T05:28:17.422Z,6.96
2019-01-27T05:31:04.745Z,6.57
2019-01-27T05:33:52.370Z,6.34
2019-01-27T05:36:40.001Z,5.99
2019-01-27T05:39:27.535Z,6.06
2019-01-27T05:42:14.824Z,6.13
2019-01-27T05:45:02.373Z,6.11
2019-01-27T05:47:49.905Z,6.11
2019-01-27T05:50:37.733Z,5.98
2019-01-27T05:53:25.475Z,6.19
2019-01-27T05:56:12.689Z,6.24
2019-01-27T05:59:00.543Z,6.55
2019-01-27T06:01:48.056Z,6.70
2019-01-27T06:04:35.788Z,6.61
2019-01-27T06:07:24.846Z,6.53
2019-01-27T06:10:13.799Z,6.44
2019-01-27T06:13:01.325Z,5.77
2019-01-27T06:15:48.543Z,6.04
2019-01-27T06:18:36.275Z,6.29
2019-01-27T06:21:23.905Z,6.25
2019-01-27T06:24:11.329Z,6.13
2019-01-27T06:26:58.613Z,6.28
2019-01-27T06:29:46.100Z,5.94
2019-01-27T06:32:44.047Z,6.16
2019-01-27T06:35:31.980Z,6.44
2019-01-27T06:38:19.816Z,5.93
2019-01-27T06:41:07.651Z,5.87
2019-01-27T06:43:55.177Z,5.97
2019-01-27T06:46:42.715Z,5.94
2019-01-27T06:49:30.534Z,6.26
2019-01-27T06:52:17.900Z,6.01
2019-01-27T06:55:09.378Z,6.05
2019-01-27T06:57:56.920Z,5.76
2019-01-27T07:00:55.285Z,5.93
2019-01-27T07:03:44.438Z,6.08
2019-01-27T07:06:36.112Z,5.92
2019-01-27T07:09:24.835Z,6.38
2019-01-27T07:12:13.786Z,6.48
2019-01-27T07:15:03.057Z,6.60
2019-01-27T07:17:54.468Z,6.24
2019-01-27T07:20:55.022Z,6.59
2019-01-27T07:24:00.650Z,6.67
2019-01-27T07:27:02.858Z,6.78
2019-01-27T07:29:54.649Z,6.16
2019-01-27T07:32:49.492Z,6.13
2019-01-27T07:35:47.523Z,3.21
2019-01-27T07:38:39.926Z,6.42
2019-01-27T07:41:28.943Z,6.63
2019-01-27T07:44:35.186Z,6.53
2019-01-27T07:47:24.255Z,6.44
2019-01-27T07:50:26.835Z,6.05
2019-01-27T07:53:17.433Z,5.86
2019-01-27T07:56:24.793Z,6.06
2019-01-27T07:59:19.105Z,6.26
2019-01-27T08:02:14.219Z,6.12
2019-01-27T08:05:03.986Z,6.30
2019-01-27T08:07:59.304Z,5.93
2019-01-27T08:10:55.424Z,6.49
2019-01-27T08:13:53.499Z,6.21
2019-01-27T08:16:57.955Z,5.88
2019-01-27T08:20:03.080Z,5.86
2019-01-27T08:22:52.432Z,6.06
2019-01-27T08:25:57.362Z,6.32
2019-01-27T08:28:52.220Z,6.18
2019-01-27T08:31:50.336Z,6.06
2019-01-27T08:34:41.788Z,6.27
2019-01-27T08:37:30.610Z,6.16
2019-01-27T08:40:19.896Z,6.19
2019-01-27T08:43:17.954Z,5.86
2019-01-27T08:46:07.487Z,6.20
2019-01-27T08:48:54.549Z,6.24
2019-01-27T08:51:41.749Z,6.27
2019-01-27T08:54:29.296Z,6.41
2019-01-27T08:57:16.915Z,6.84
2019-01-27T09:00:11.099Z,6.89
2019-01-27T09:02:59.831Z,6.80
2019-01-27T09:05:49.119Z,6.97
2019-01-27T09:08:44.225Z,7.20
2019-01-27T09:11:34.213Z,6.92
2019-01-27T09:14:26.143Z,6.94
2019-01-27T09:17:24.321Z,6.88
2019-01-27T09:20:19.320Z,7.00
2019-01-27T09:23:16.681Z,7.08
2019-01-27T09:26:11.608Z,7.05
2019-01-27T09:29:00.429Z,7.01
2019-01-27T09:32:04.640Z,7.08
2019-01-27T09:35:08.559Z,6.86
2019-01-27T09:37:57.832Z,6.49
2019-01-27T09:40:46.900Z,6.69
2019-01-27T09:43:45.268Z,6.49
2019-01-27T09:46:52.455Z,6.49
2019-01-27T09:49:59.450Z,5.99
2019-01-27T09:52:58.028Z,6.98
2019-01-27T09:56:02.866Z,6.46
2019-01-27T09:58:52.537Z,6.55
2019-01-27T10:01:41.494Z,6.71
2019-01-27T10:04:36.392Z,6.63
2019-01-27T10:07:27.617Z,6.77
2019-01-27T10:10:25.270Z,6.99
2019-01-27T10:13:14.128Z,7.53
2019-01-27T10:16:06.271Z,7.48
2019-01-27T10:18:55.083Z,6.95
2019-01-27T10:21:53.088Z,7.02
2019-01-27T10:24:42.662Z,6.82
2019-01-27T10:27:31.686Z,6.60
2019-01-27T10:30:24.965Z,6.56
2019-01-27T10:33:13.683Z,6.45
2019-01-27T10:36:14.307Z,6.55
2019-01-27T10:39:18.797Z,6.60
2019-01-27T10:42:10.530Z,6.69
2019-01-27T10:45:11.338Z,6.73
2019-01-27T10:48:09.234Z,6.78
2019-01-27T10:51:07.306Z,6.86
2019-01-27T10:53:56.371Z,6.79
2019-01-27T10:56:51.230Z,7.18
2019-01-27T10:59:40.223Z,7.17
2019-01-27T11:02:36.697Z,7.34
2019-01-27T11:05:22.861Z,7.65
2019-01-27T11:08:12.330Z,7.80
2019-01-27T11:11:05.178Z,7.84
2019-01-27T11:14:00.833Z,7.63
2019-01-27T11:16:52.725Z,7.59
2019-01-27T11:19:41.788Z,7.63
2019-01-27T11:22:30.919Z,7.59
2019-01-27T11:25:20.632Z,7.51
2019-01-27T11:28:18.364Z,7.66
2019-01-27T11:31:24.151Z,7.33
2019-01-27T11:34:13.318Z,7.23
2019-01-27T11:37:05.161Z,7.59
2019-01-27T11:39:54.205Z,7.71
2019-01-27T11:42:51.869Z,7.64
2019-01-27T11:45:57.232Z,7.26
2019-01-27T11:48:46.700Z,7.30
2019-01-27T11:51:35.951Z,7.22
2019-01-27T11:54:23.578Z,7.18
2019-01-27T11:57:11.211Z,7.36
2019-01-27T11:59:59.196Z,7.23
2019-01-27T12:02:46.961Z,7.15
2019-01-27T12:05:34.226Z,7.21
2019-01-27T12:08:21.624Z,7.36
2019-01-27T12:11:09.353Z,7.25
2019-01-27T12:13:56.268Z,7.15
2019-01-27T12:16:44.205Z,7.24
2019-01-27T12:19:31.733Z,7.30
2019-01-27T12:22:19.154Z,7.11
2019-01-27T12:25:12.419Z,7.03
2019-01-27T12:27:59.837Z,6.89
2019-01-27T12:30:47.364Z,7.21
2019-01-27T12:33:34.580Z,7.56
2019-01-27T12:36:22.525Z,7.46
2019-01-27T12:39:09.737Z,7.35
2019-01-27T12:41:57.881Z,7.43
2019-01-27T12:44:45.305Z,7.36
2019-01-27T12:47:33.343Z,7.15
2019-01-27T12:50:21.379Z,7.09
2019-01-27T12:53:08.701Z,7.02
2019-01-27T12:55:56.012Z,7.13
2019-01-27T12:58:42.830Z,7.35
2019-01-27T13:01:31.689Z,7.69
2019-01-27T13:04:19.772Z,7.64
2019-01-27T13:07:07.665Z,7.35
2019-01-27T13:09:54.997Z,7.46
2019-01-27T13:12:42.863Z,7.61
2019-01-27T13:15:30.208Z,7.65
2019-01-27T13:18:17.566Z,6.59
2019-01-27T13:21:05.706Z,7.78
2019-01-27T13:23:53.043Z,7.88
2019-01-27T13:26:40.671Z,7.84
2019-01-27T13:29:28.511Z,7.81
2019-01-27T13:32:16.335Z,7.92
2019-01-27T13:35:04.673Z,8.07
2019-01-27T13:37:52.769Z,7.79
2019-01-27T13:40:40.426Z,7.77
2019-01-27T13:43:28.178Z,8.02
2019-01-27T13:46:15.819Z,8.28
2019-01-27T13:49:03.535Z,8.26
2019-01-27T13:51:51.371Z,7.96
2019-01-27T13:54:38.917Z,7.65
2019-01-27T13:57:26.624Z,7.46
2019-01-27T14:00:19.831Z,7.67
2019-01-27T14:03:07.585Z,7.60
2019-01-27T14:05:55.246Z,7.76
2019-01-27T14:08:43.084Z,7.87
2019-01-27T14:11:30.928Z,7.72
2019-01-27T14:14:18.040Z,8.13
2019-01-27T14:17:05.811Z,7.72
2019-01-27T14:19:53.414Z,7.89
2019-01-27T14:22:41.267Z,7.77
2019-01-27T14:25:30.524Z,7.77
2019-01-27T14:28:18.630Z,8.07
2019-01-27T14:31:05.848Z,7.90
2019-01-27T14:33:52.784Z,8.01
2019-01-27T14:36:40.089Z,7.95
2019-01-27T14:39:27.301Z,7.86
2019-01-27T14:42:14.528Z,7.76
2019-01-27T14:45:02.406Z,7.36
2019-01-27T14:47:50.190Z,7.36
2019-01-27T14:50:40.642Z,7.50
2019-01-27T14:53:28.106Z,7.56
2019-01-27T14:56:15.742Z,8.04
2019-01-27T14:59:03.467Z,8.10
2019-01-27T15:01:50.993Z,8.08
2019-01-27T15:04:38.519Z,8.00
2019-01-27T15:07:25.672Z,7.88
2019-01-27T15:10:19.106Z,7.92
2019-01-27T15:13:07.304Z,7.82
2019-01-27T15:15:54.689Z,7.90
2019-01-27T15:18:43.014Z,7.67
2019-01-27T15:21:30.334Z,7.42
2019-01-27T15:24:17.964Z,7.56
2019-01-27T15:27:05.796Z,7.85
2019-01-27T15:29:54.220Z,7.51
2019-01-27T15:32:41.689Z,7.65
2019-01-27T15:35:29.255Z,7.73
2019-01-27T15:38:16.815Z,7.78
2019-01-27T15:41:04.249Z,7.29
2019-01-27T15:43:51.627Z,7.42
2019-01-27T15:46:39.892Z,7.41
2019-01-27T15:49:28.589Z,7.38
2019-01-27T15:52:15.994Z,7.15
2019-01-27T15:55:03.524Z,7.27
2019-01-27T15:57:50.875Z,7.56
2019-01-27T16:00:38.881Z,7.93
2019-01-27T16:03:26.116Z,7.65
2019-01-27T16:06:13.835Z,7.52
2019-01-27T16:09:03.505Z,7.49
2019-01-27T16:11:51.145Z,7.59
2019-01-27T16:14:38.766Z,7.71
2019-01-27T16:17:26.291Z,7.70
2019-01-27T16:20:18.981Z,8.10
2019-01-27T16:23:13.668Z,8.05
2019-01-27T16:26:02.386Z,8.30
2019-01-27T16:28:49.400Z,8.09
2019-01-27T16:31:38.568Z,8.26
2019-01-27T16:34:27.947Z,7.81
2019-01-27T16:37:15.359Z,7.35
2019-01-27T16:40:02.273Z,7.73
2019-01-27T16:42:49.901Z,7.94
2019-01-27T16:45:37.738Z,8.15
2019-01-27T16:48:25.467Z,8.19
2019-01-27T16:51:13.404Z,8.08
2019-01-27T16:54:00.830Z,7.76
2019-01-27T16:56:48.250Z,8.09
2019-01-27T16:59:35.579Z,7.91
2019-01-27T17:02:23.820Z,7.80
2019-01-27T17:05:14.190Z,7.95
2019-01-27T17:08:01.953Z,7.69
2019-01-27T17:10:49.144Z,7.65
2019-01-27T17:13:36.584Z,7.75
2019-01-27T17:16:24.164Z,7.94
2019-01-27T17:19:11.637Z,7.80
2019-01-27T17:21:59.161Z,8.01
2019-01-27T17:24:46.719Z,8.18
2019-01-27T17:27:34.420Z,8.03
2019-01-27T17:30:26.865Z,8.07
2019-01-27T17:33:14.766Z,8.01
2019-01-27T17:36:02.227Z,8.02
2019-01-27T17:38:49.657Z,8.17
2019-01-27T17:41:37.030Z,8.10
2019-01-27T17:44:24.368Z,8.06
2019-01-27T17:47:11.716Z,8.00
2019-01-27T17:50:01.210Z,7.81
2019-01-27T17:52:50.198Z,7.77
2019-01-27T17:55:44.844Z,7.30
2019-01-27T17:58:54.221Z,7.42
2019-01-27T18:01:43.273Z,7.72
2019-01-27T18:04:32.439Z,7.85
2019-01-27T18:07:21.371Z,7.96
2019-01-27T18:10:24.562Z,7.75
2019-01-27T18:13:14.449Z,7.95
2019-01-27T18:16:03.505Z,8.08
2019-01-27T18:18:50.529Z,8.24
2019-01-27T18:21:38.356Z,8.30
2019-01-27T18:24:26.089Z,8.35
2019-01-27T18:27:12.923Z,8.42
2019-01-27T18:30:00.726Z,8.46
2019-01-27T18:32:48.463Z,8.51
2019-01-27T18:35:35.803Z,8.47
2019-01-27T18:38:23.516Z,8.39
2019-01-27T18:41:11.549Z,8.38
2019-01-27T18:43:58.795Z,8.28
2019-01-27T18:46:46.613Z,8.14
2019-01-27T18:49:33.831Z,7.99
2019-01-27T18:52:21.455Z,7.95
2019-01-27T18:55:13.097Z,8.07
2019-01-27T18:58:04.740Z,8.25
2019-01-27T19:00:57.041Z,8.26
2019-01-27T19:03:46.009Z,8.29
2019-01-27T19:06:35.270Z,8.20
2019-01-27T19:09:24.630Z,8.26
2019-01-27T19:12:19.633Z,6.67
2019-01-27T19:15:21.187Z,7.93
2019-01-27T19:18:26.946Z,7.96
2019-01-27T19:21:18.777Z,7.83
2019-01-27T19:24:19.300Z,7.92
2019-01-27T19:27:26.095Z,8.02
2019-01-27T19:30:23.727Z,7.87
2019-01-27T19:33:12.396Z,8.11
2019-01-27T19:36:12.975Z,7.72
2019-01-27T19:39:07.519Z,7.95
2019-01-27T19:41:56.794Z,7.95
2019-01-27T19:44:48.511Z,7.96
2019-01-27T19:47:40.752Z,8.18
2019-01-27T19:50:30.221Z,8.28
2019-01-27T19:53:19.386Z,7.98
2019-01-27T19:56:11.212Z,7.71
2019-01-27T19:59:01.098Z,7.73
2019-01-27T20:01:52.921Z,7.66
2019-01-27T20:04:44.607Z,7.78
2019-01-27T20:07:39.653Z,7.90
2019-01-27T20:10:31.170Z,7.86
2019-01-27T20:13:22.791Z,7.82
2019-01-27T20:16:11.545Z,7.64
2019-01-27T20:19:03.578Z,7.52
2019-01-27T20:22:09.125Z,7.75
2019-01-27T20:25:00.646Z,7.36
2019-01-27T20:27:52.267Z,7.55
2019-01-27T20:30:43.787Z,7.78
2019-01-27T20:33:36.370Z,7.56
2019-01-27T20:36:39.989Z,7.33
2019-01-27T20:39:44.734Z,7.46
2019-01-27T20:42:46.166Z,7.42
2019-01-27T20:45:37.948Z,7.36
2019-01-27T20:48:27.112Z,7.20
2019-01-27T20:51:16.587Z,6.74
2019-01-27T20:54:21.530Z,7.01
2019-01-27T20:57:26.214Z,7.10
2019-01-27T21:00:35.638Z,7.13
2019-01-27T21:03:24.442Z,6.82
2019-01-27T21:06:16.389Z,6.71
2019-01-27T21:09:06.459Z,6.77
2019-01-27T21:11:55.776Z,6.94
2019-01-27T21:14:53.489Z,7.20
2019-01-27T21:17:46.858Z,7.09
2019-01-27T21:20:34.380Z,6.97
2019-01-27T21:23:21.804Z,7.08
2019-01-27T21:26:09.189Z,7.27
2019-01-27T21:28:56.909Z,7.24
2019-01-27T21:31:44.431Z,7.38
2019-01-27T21:34:32.013Z,7.38
2019-01-27T21:37:39.076Z,7.54
2019-01-27T21:40:26.628Z,7.63
2019-01-27T21:43:14.105Z,7.64
2019-01-27T21:46:01.993Z,7.50
2019-01-27T21:48:49.743Z,7.42
2019-01-27T21:51:37.349Z,7.43
2019-01-27T21:54:24.665Z,7.25
2019-01-27T21:57:12.089Z,7.22
2019-01-27T21:59:58.899Z,7.00
2019-01-27T22:02:46.225Z,7.01
2019-01-27T22:05:33.421Z,7.22
2019-01-27T22:08:20.762Z,7.40
2019-01-27T22:11:08.496Z,7.35
2019-01-27T22:13:56.333Z,7.16
2019-01-27T22:16:43.650Z,7.04
2019-01-27T22:19:31.186Z,7.06
2019-01-27T22:22:18.802Z,6.92
2019-01-27T22:25:08.576Z,7.04
2019-01-27T22:27:55.932Z,6.92
2019-01-27T22:30:49.614Z,6.90
2019-01-27T22:33:36.694Z,6.66
2019-01-27T22:36:27.497Z,6.78
2019-01-27T22:39:15.434Z,6.80
2019-01-27T22:42:02.963Z,6.77
2019-01-27T22:44:50.487Z,6.75
2019-01-27T22:47:37.488Z,6.65
2019-01-27T22:50:25.029Z,6.67
2019-01-27T22:53:12.874Z,6.67
2019-01-27T22:56:00.388Z,6.44
2019-01-27T22:58:47.532Z,6.56
2019-01-27T23:01:35.549Z,6.70
2019-01-27T23:04:22.761Z,6.57
2019-01-27T23:07:10.393Z,6.54
2019-01-27T23:09:57.824Z,6.59
2019-01-27T23:12:45.343Z,6.62
2019-01-27T23:15:33.378Z,6.56
2019-01-27T23:18:21.108Z,6.66
2019-01-27T23:21:08.414Z,6.61
2019-01-27T23:23:55.653Z,6.62
2019-01-27T23:26:42.699Z,6.72
2019-01-27T23:29:30.601Z,6.43
2019-01-27T23:32:18.145Z,6.41
2019-01-27T23:35:07.341Z,6.40
2019-01-27T23:37:54.551Z,6.45
2019-01-27T23:40:41.734Z,6.42
2019-01-27T23:43:30.180Z,6.06
2019-01-27T23:46:17.090Z,6.25
2019-01-27T23:49:05.625Z,6.43
2019-01-27T23:51:53.167Z,6.44
2019-01-27T23:54:41.005Z,6.33
2019-01-27T23:57:28.103Z,6.11
